sensor_id;sensor_type;location;lat;lon;timestamp;P1;durP1;ratioP1;P2;durP2;ratioP2
84946;SDS011;75241;51.692;5.196;2024-03-22T00:01:14;50.10;;;26.25;;
84946;SDS011;75241;51.692;5.196;2024-03-22T00:03:39;51.05;;;25.05;;
84946;SDS011;75241;51.692;5.196;2024-03-22T00:06:05;51.03;;;25.55;;
84946;SDS011;75241;51.692;5.196;2024-03-22T00:08:30;56.90;;;27.88;;
84946;SDS011;75241;51.692;5.196;2024-03-22T00:10:55;56.45;;;28.05;;
84946;SDS011;75241;51.692;5.196;2024-03-22T00:13:21;55.97;;;27.67;;
84946;SDS011;75241;51.692;5.196;2024-03-22T00:15:46;53.17;;;25.83;;
84946;SDS011;75241;51.692;5.196;2024-03-22T00:18:12;55.13;;;26.85;;
84946;SDS011;75241;51.692;5.196;2024-03-22T00:20:37;57.53;;;27.55;;
84946;SDS011;75241;51.692;5.196;2024-03-22T00:23:03;51.40;;;26.85;;
84946;SDS011;75241;51.692;5.196;2024-03-22T00:25:28;53.67;;;27.50;;
84946;SDS011;75241;51.692;5.196;2024-03-22T00:27:54;51.97;;;24.85;;
84946;SDS011;75241;51.692;5.196;2024-03-22T00:30:20;51.45;;;25.10;;
84946;SDS011;75241;51.692;5.196;2024-03-22T00:32:45;54.80;;;27.05;;
84946;SDS011;75241;51.692;5.196;2024-03-22T00:35:12;56.15;;;26.08;;
84946;SDS011;75241;51.692;5.196;2024-03-22T00:37:37;48.97;;;25.13;;
84946;SDS011;75241;51.692;5.196;2024-03-22T00:40:03;52.35;;;27.58;;
84946;SDS011;75241;51.692;5.196;2024-03-22T00:42:29;51.85;;;26.42;;
84946;SDS011;75241;51.692;5.196;2024-03-22T00:44:55;50.70;;;26.35;;
84946;SDS011;75241;51.692;5.196;2024-03-22T00:47:22;52.30;;;25.48;;
84946;SDS011;75241;51.692;5.196;2024-03-22T00:49:47;49.03;;;26.55;;
84946;SDS011;75241;51.692;5.196;2024-03-22T00:52:12;54.65;;;27.75;;
84946;SDS011;75241;51.692;5.196;2024-03-22T00:54:40;50.03;;;25.70;;
84946;SDS011;75241;51.692;5.196;2024-03-22T00:57:06;49.85;;;26.17;;
84946;SDS011;75241;51.692;5.196;2024-03-22T00:59:31;51.17;;;26.83;;
84946;SDS011;75241;51.692;5.196;2024-03-22T01:01:57;48.63;;;25.77;;
84946;SDS011;75241;51.692;5.196;2024-03-22T01:04:23;49.58;;;27.02;;
84946;SDS011;75241;51.692;5.196;2024-03-22T01:06:48;46.15;;;24.95;;
84946;SDS011;75241;51.692;5.196;2024-03-22T01:09:13;50.80;;;27.23;;
84946;SDS011;75241;51.692;5.196;2024-03-22T01:11:39;50.35;;;25.48;;
84946;SDS011;75241;51.692;5.196;2024-03-22T01:14:05;48.05;;;25.17;;
84946;SDS011;75241;51.692;5.196;2024-03-22T01:16:30;50.38;;;27.40;;
84946;SDS011;75241;51.692;5.196;2024-03-22T01:18:56;49.25;;;25.75;;
84946;SDS011;75241;51.692;5.196;2024-03-22T01:21:21;47.17;;;25.27;;
84946;SDS011;75241;51.692;5.196;2024-03-22T01:23:50;50.30;;;25.95;;
84946;SDS011;75241;51.692;5.196;2024-03-22T01:26:16;47.33;;;24.67;;
84946;SDS011;75241;51.692;5.196;2024-03-22T01:28:42;48.60;;;26.35;;
84946;SDS011;75241;51.692;5.196;2024-03-22T01:31:07;50.65;;;25.88;;
84946;SDS011;75241;51.692;5.196;2024-03-22T01:33:33;50.67;;;27.00;;
84946;SDS011;75241;51.692;5.196;2024-03-22T01:35:58;55.22;;;26.73;;
84946;SDS011;75241;51.692;5.196;2024-03-22T01:38:23;52.45;;;24.98;;
84946;SDS011;75241;51.692;5.196;2024-03-22T01:40:49;57.78;;;27.90;;
84946;SDS011;75241;51.692;5.196;2024-03-22T01:43:14;54.67;;;27.75;;
84946;SDS011;75241;51.692;5.196;2024-03-22T01:45:40;55.45;;;27.48;;
84946;SDS011;75241;51.692;5.196;2024-03-22T01:48:06;52.42;;;27.15;;
84946;SDS011;75241;51.692;5.196;2024-03-22T01:50:32;52.40;;;26.73;;
84946;SDS011;75241;51.692;5.196;2024-03-22T01:52:58;53.97;;;26.77;;
84946;SDS011;75241;51.692;5.196;2024-03-22T01:55:23;49.17;;;26.30;;
84946;SDS011;75241;51.692;5.196;2024-03-22T01:57:49;55.25;;;26.88;;
84946;SDS011;75241;51.692;5.196;2024-03-22T02:00:18;52.10;;;25.73;;
84946;SDS011;75241;51.692;5.196;2024-03-22T02:02:43;49.95;;;25.90;;
84946;SDS011;75241;51.692;5.196;2024-03-22T02:05:12;50.30;;;25.65;;
84946;SDS011;75241;51.692;5.196;2024-03-22T02:07:40;52.58;;;27.55;;
84946;SDS011;75241;51.692;5.196;2024-03-22T02:10:05;47.78;;;25.23;;
84946;SDS011;75241;51.692;5.196;2024-03-22T02:12:33;50.50;;;26.15;;
84946;SDS011;75241;51.692;5.196;2024-03-22T02:14:59;47.70;;;27.25;;
84946;SDS011;75241;51.692;5.196;2024-03-22T02:17:27;46.75;;;25.63;;
84946;SDS011;75241;51.692;5.196;2024-03-22T02:19:52;52.90;;;26.73;;
84946;SDS011;75241;51.692;5.196;2024-03-22T02:22:18;48.85;;;25.98;;
84946;SDS011;75241;51.692;5.196;2024-03-22T02:24:43;52.45;;;26.55;;
84946;SDS011;75241;51.692;5.196;2024-03-22T02:27:09;47.67;;;25.67;;
84946;SDS011;75241;51.692;5.196;2024-03-22T02:29:34;48.35;;;25.70;;
84946;SDS011;75241;51.692;5.196;2024-03-22T02:31:59;48.15;;;27.17;;
84946;SDS011;75241;51.692;5.196;2024-03-22T02:34:25;52.90;;;25.55;;
84946;SDS011;75241;51.692;5.196;2024-03-22T02:36:50;50.85;;;26.92;;
84946;SDS011;75241;51.692;5.196;2024-03-22T02:39:16;48.20;;;27.42;;
84946;SDS011;75241;51.692;5.196;2024-03-22T02:41:41;46.28;;;24.60;;
84946;SDS011;75241;51.692;5.196;2024-03-22T02:44:06;45.80;;;25.45;;
84946;SDS011;75241;51.692;5.196;2024-03-22T02:46:32;48.70;;;25.50;;
84946;SDS011;75241;51.692;5.196;2024-03-22T02:48:57;46.03;;;24.00;;
84946;SDS011;75241;51.692;5.196;2024-03-22T02:51:23;45.28;;;23.20;;
84946;SDS011;75241;51.692;5.196;2024-03-22T02:53:48;46.72;;;25.05;;
84946;SDS011;75241;51.692;5.196;2024-03-22T02:56:14;42.05;;;23.02;;
84946;SDS011;75241;51.692;5.196;2024-03-22T02:58:39;43.05;;;24.15;;
84946;SDS011;75241;51.692;5.196;2024-03-22T03:01:05;44.67;;;23.70;;
84946;SDS011;75241;51.692;5.196;2024-03-22T03:03:31;44.92;;;24.23;;
84946;SDS011;75241;51.692;5.196;2024-03-22T03:05:56;45.03;;;23.60;;
84946;SDS011;75241;51.692;5.196;2024-03-22T03:08:22;43.45;;;23.27;;
84946;SDS011;75241;51.692;5.196;2024-03-22T03:10:47;41.20;;;21.33;;
84946;SDS011;75241;51.692;5.196;2024-03-22T03:13:12;45.40;;;24.48;;
84946;SDS011;75241;51.692;5.196;2024-03-22T03:15:38;39.28;;;23.05;;
84946;SDS011;75241;51.692;5.196;2024-03-22T03:18:03;42.45;;;22.02;;
84946;SDS011;75241;51.692;5.196;2024-03-22T03:20:29;44.28;;;24.98;;
84946;SDS011;75241;51.692;5.196;2024-03-22T03:22:54;48.97;;;24.80;;
84946;SDS011;75241;51.692;5.196;2024-03-22T03:25:20;43.95;;;23.98;;
84946;SDS011;75241;51.692;5.196;2024-03-22T03:27:46;43.67;;;21.42;;
84946;SDS011;75241;51.692;5.196;2024-03-22T03:30:11;39.90;;;21.27;;
84946;SDS011;75241;51.692;5.196;2024-03-22T03:32:36;40.05;;;22.17;;
84946;SDS011;75241;51.692;5.196;2024-03-22T03:35:02;37.47;;;21.30;;
84946;SDS011;75241;51.692;5.196;2024-03-22T03:37:27;36.83;;;21.27;;
84946;SDS011;75241;51.692;5.196;2024-03-22T03:39:53;33.63;;;19.73;;
84946;SDS011;75241;51.692;5.196;2024-03-22T03:42:19;38.78;;;19.30;;
84946;SDS011;75241;51.692;5.196;2024-03-22T03:44:44;34.35;;;20.15;;
84946;SDS011;75241;51.692;5.196;2024-03-22T03:47:09;35.60;;;20.40;;
84946;SDS011;75241;51.692;5.196;2024-03-22T03:49:35;35.67;;;19.05;;
84946;SDS011;75241;51.692;5.196;2024-03-22T03:52:00;36.30;;;19.58;;
84946;SDS011;75241;51.692;5.196;2024-03-22T03:54:26;31.35;;;17.52;;
84946;SDS011;75241;51.692;5.196;2024-03-22T03:56:51;33.65;;;18.52;;
84946;SDS011;75241;51.692;5.196;2024-03-22T03:59:17;31.23;;;17.13;;
84946;SDS011;75241;51.692;5.196;2024-03-22T04:01:43;33.15;;;16.92;;
84946;SDS011;75241;51.692;5.196;2024-03-22T04:04:08;28.25;;;15.95;;
84946;SDS011;75241;51.692;5.196;2024-03-22T04:06:34;31.85;;;17.10;;
84946;SDS011;75241;51.692;5.196;2024-03-22T04:08:59;33.22;;;18.05;;
84946;SDS011;75241;51.692;5.196;2024-03-22T04:11:25;31.02;;;17.83;;
84946;SDS011;75241;51.692;5.196;2024-03-22T04:13:51;26.75;;;15.80;;
84946;SDS011;75241;51.692;5.196;2024-03-22T04:16:16;30.75;;;17.13;;
84946;SDS011;75241;51.692;5.196;2024-03-22T04:18:44;31.65;;;17.52;;
84946;SDS011;75241;51.692;5.196;2024-03-22T04:21:09;31.70;;;17.80;;
84946;SDS011;75241;51.692;5.196;2024-03-22T04:23:35;32.03;;;18.20;;
84946;SDS011;75241;51.692;5.196;2024-03-22T04:26:00;36.65;;;17.88;;
84946;SDS011;75241;51.692;5.196;2024-03-22T04:28:29;30.42;;;17.23;;
84946;SDS011;75241;51.692;5.196;2024-03-22T04:30:56;34.65;;;19.02;;
84946;SDS011;75241;51.692;5.196;2024-03-22T04:33:25;32.22;;;18.02;;
84946;SDS011;75241;51.692;5.196;2024-03-22T04:35:51;33.55;;;16.65;;
84946;SDS011;75241;51.692;5.196;2024-03-22T04:38:17;32.95;;;17.60;;
84946;SDS011;75241;51.692;5.196;2024-03-22T04:40:42;35.35;;;18.58;;
84946;SDS011;75241;51.692;5.196;2024-03-22T04:43:08;29.33;;;17.33;;
84946;SDS011;75241;51.692;5.196;2024-03-22T04:45:33;33.80;;;17.60;;
84946;SDS011;75241;51.692;5.196;2024-03-22T04:48:00;27.23;;;16.83;;
84946;SDS011;75241;51.692;5.196;2024-03-22T04:50:26;29.05;;;17.08;;
84946;SDS011;75241;51.692;5.196;2024-03-22T04:52:52;32.15;;;16.45;;
84946;SDS011;75241;51.692;5.196;2024-03-22T04:55:17;31.48;;;17.63;;
84946;SDS011;75241;51.692;5.196;2024-03-22T04:57:43;30.80;;;17.08;;
84946;SDS011;75241;51.692;5.196;2024-03-22T05:00:08;29.02;;;16.23;;
84946;SDS011;75241;51.692;5.196;2024-03-22T05:02:34;26.05;;;16.08;;
84946;SDS011;75241;51.692;5.196;2024-03-22T05:04:59;27.48;;;15.90;;
84946;SDS011;75241;51.692;5.196;2024-03-22T05:07:25;30.77;;;16.48;;
84946;SDS011;75241;51.692;5.196;2024-03-22T05:09:50;30.73;;;17.80;;
84946;SDS011;75241;51.692;5.196;2024-03-22T05:12:16;31.23;;;16.52;;
84946;SDS011;75241;51.692;5.196;2024-03-22T05:14:41;26.17;;;17.63;;
84946;SDS011;75241;51.692;5.196;2024-03-22T05:17:07;33.13;;;18.13;;
84946;SDS011;75241;51.692;5.196;2024-03-22T05:19:32;29.50;;;17.33;;
84946;SDS011;75241;51.692;5.196;2024-03-22T05:21:57;29.75;;;16.60;;
84946;SDS011;75241;51.692;5.196;2024-03-22T05:24:23;34.88;;;18.77;;
84946;SDS011;75241;51.692;5.196;2024-03-22T05:26:49;35.30;;;19.23;;
84946;SDS011;75241;51.692;5.196;2024-03-22T05:29:14;31.77;;;17.45;;
84946;SDS011;75241;51.692;5.196;2024-03-22T05:31:49;34.70;;;17.70;;
84946;SDS011;75241;51.692;5.196;2024-03-22T05:34:16;32.67;;;17.48;;
84946;SDS011;75241;51.692;5.196;2024-03-22T05:36:43;32.92;;;17.65;;
84946;SDS011;75241;51.692;5.196;2024-03-22T05:39:08;32.35;;;18.05;;
84946;SDS011;75241;51.692;5.196;2024-03-22T05:41:36;31.77;;;17.20;;
84946;SDS011;75241;51.692;5.196;2024-03-22T05:44:01;33.17;;;18.83;;
84946;SDS011;75241;51.692;5.196;2024-03-22T05:46:27;32.30;;;17.27;;
84946;SDS011;75241;51.692;5.196;2024-03-22T05:48:53;32.63;;;18.77;;
84946;SDS011;75241;51.692;5.196;2024-03-22T05:51:19;35.15;;;18.80;;
84946;SDS011;75241;51.692;5.196;2024-03-22T05:53:44;34.78;;;18.15;;
84946;SDS011;75241;51.692;5.196;2024-03-22T05:56:10;36.40;;;19.92;;
84946;SDS011;75241;51.692;5.196;2024-03-22T05:58:35;37.03;;;17.67;;
84946;SDS011;75241;51.692;5.196;2024-03-22T06:01:01;37.10;;;17.88;;
84946;SDS011;75241;51.692;5.196;2024-03-22T06:03:28;28.48;;;15.90;;
84946;SDS011;75241;51.692;5.196;2024-03-22T06:05:53;29.40;;;18.38;;
84946;SDS011;75241;51.692;5.196;2024-03-22T06:08:21;29.73;;;17.45;;
84946;SDS011;75241;51.692;5.196;2024-03-22T06:10:47;35.30;;;18.70;;
84946;SDS011;75241;51.692;5.196;2024-03-22T06:13:13;31.40;;;18.05;;
84946;SDS011;75241;51.692;5.196;2024-03-22T06:15:38;32.95;;;18.42;;
84946;SDS011;75241;51.692;5.196;2024-03-22T06:18:05;32.55;;;18.50;;
84946;SDS011;75241;51.692;5.196;2024-03-22T06:20:31;33.78;;;18.90;;
84946;SDS011;75241;51.692;5.196;2024-03-22T06:22:56;32.45;;;18.02;;
84946;SDS011;75241;51.692;5.196;2024-03-22T06:25:22;31.10;;;18.20;;
84946;SDS011;75241;51.692;5.196;2024-03-22T06:27:47;37.80;;;18.63;;
84946;SDS011;75241;51.692;5.196;2024-03-22T06:30:12;30.60;;;16.90;;
84946;SDS011;75241;51.692;5.196;2024-03-22T06:32:38;33.17;;;18.15;;
84946;SDS011;75241;51.692;5.196;2024-03-22T06:35:03;34.53;;;18.42;;
84946;SDS011;75241;51.692;5.196;2024-03-22T06:37:30;31.88;;;17.38;;
84946;SDS011;75241;51.692;5.196;2024-03-22T06:39:56;31.05;;;17.20;;
84946;SDS011;75241;51.692;5.196;2024-03-22T06:42:23;32.72;;;17.40;;
84946;SDS011;75241;51.692;5.196;2024-03-22T06:44:49;29.92;;;17.27;;
84946;SDS011;75241;51.692;5.196;2024-03-22T06:47:14;31.73;;;16.90;;
84946;SDS011;75241;51.692;5.196;2024-03-22T06:49:40;32.05;;;17.00;;
84946;SDS011;75241;51.692;5.196;2024-03-22T06:52:05;28.83;;;15.35;;
84946;SDS011;75241;51.692;5.196;2024-03-22T06:54:31;32.42;;;17.98;;
84946;SDS011;75241;51.692;5.196;2024-03-22T06:56:56;27.58;;;14.95;;
84946;SDS011;75241;51.692;5.196;2024-03-22T06:59:21;31.55;;;16.45;;
84946;SDS011;75241;51.692;5.196;2024-03-22T07:01:47;29.35;;;16.13;;
84946;SDS011;75241;51.692;5.196;2024-03-22T07:04:12;29.17;;;17.25;;
84946;SDS011;75241;51.692;5.196;2024-03-22T07:06:37;27.90;;;16.02;;
84946;SDS011;75241;51.692;5.196;2024-03-22T07:09:03;30.50;;;16.77;;
84946;SDS011;75241;51.692;5.196;2024-03-22T07:11:28;31.95;;;18.38;;
84946;SDS011;75241;51.692;5.196;2024-03-22T07:13:55;27.45;;;14.65;;
84946;SDS011;75241;51.692;5.196;2024-03-22T07:16:20;27.38;;;15.73;;
84946;SDS011;75241;51.692;5.196;2024-03-22T07:18:45;33.35;;;15.75;;
84946;SDS011;75241;51.692;5.196;2024-03-22T07:21:13;30.25;;;17.00;;
84946;SDS011;75241;51.692;5.196;2024-03-22T07:23:38;30.10;;;16.77;;
84946;SDS011;75241;51.692;5.196;2024-03-22T07:26:04;28.55;;;16.63;;
84946;SDS011;75241;51.692;5.196;2024-03-22T07:28:30;29.58;;;16.58;;
84946;SDS011;75241;51.692;5.196;2024-03-22T07:30:56;27.48;;;15.93;;
84946;SDS011;75241;51.692;5.196;2024-03-22T07:33:21;31.25;;;18.10;;
84946;SDS011;75241;51.692;5.196;2024-03-22T07:35:47;29.30;;;15.40;;
84946;SDS011;75241;51.692;5.196;2024-03-22T07:38:12;27.92;;;16.13;;
84946;SDS011;75241;51.692;5.196;2024-03-22T07:40:37;27.58;;;15.70;;
84946;SDS011;75241;51.692;5.196;2024-03-22T07:43:03;30.85;;;15.77;;
84946;SDS011;75241;51.692;5.196;2024-03-22T07:45:32;26.58;;;14.48;;
84946;SDS011;75241;51.692;5.196;2024-03-22T07:47:59;28.00;;;15.35;;
84946;SDS011;75241;51.692;5.196;2024-03-22T07:50:24;24.42;;;15.30;;
84946;SDS011;75241;51.692;5.196;2024-03-22T07:52:50;27.67;;;13.75;;
84946;SDS011;75241;51.692;5.196;2024-03-22T07:55:15;28.35;;;15.18;;
84946;SDS011;75241;51.692;5.196;2024-03-22T07:57:41;24.75;;;13.55;;
84946;SDS011;75241;51.692;5.196;2024-03-22T08:00:06;24.70;;;12.95;;
84946;SDS011;75241;51.692;5.196;2024-03-22T08:02:32;23.90;;;13.07;;
84946;SDS011;75241;51.692;5.196;2024-03-22T08:04:57;23.10;;;12.98;;
84946;SDS011;75241;51.692;5.196;2024-03-22T08:07:23;24.45;;;13.57;;
84946;SDS011;75241;51.692;5.196;2024-03-22T08:09:48;21.55;;;12.82;;
84946;SDS011;75241;51.692;5.196;2024-03-22T08:12:15;23.45;;;13.05;;
84946;SDS011;75241;51.692;5.196;2024-03-22T08:14:41;23.50;;;13.27;;
84946;SDS011;75241;51.692;5.196;2024-03-22T08:17:07;22.85;;;12.48;;
84946;SDS011;75241;51.692;5.196;2024-03-22T08:19:34;22.63;;;12.70;;
84946;SDS011;75241;51.692;5.196;2024-03-22T08:22:00;18.00;;;10.75;;
84946;SDS011;75241;51.692;5.196;2024-03-22T08:24:25;21.45;;;12.35;;
84946;SDS011;75241;51.692;5.196;2024-03-22T08:26:50;21.33;;;11.77;;
84946;SDS011;75241;51.692;5.196;2024-03-22T08:29:18;22.50;;;11.45;;
84946;SDS011;75241;51.692;5.196;2024-03-22T08:31:44;22.90;;;12.23;;
84946;SDS011;75241;51.692;5.196;2024-03-22T08:34:09;21.17;;;11.07;;
84946;SDS011;75241;51.692;5.196;2024-03-22T08:36:35;21.75;;;11.13;;
84946;SDS011;75241;51.692;5.196;2024-03-22T08:39:01;20.42;;;11.02;;
84946;SDS011;75241;51.692;5.196;2024-03-22T08:41:27;18.13;;;11.15;;
84946;SDS011;75241;51.692;5.196;2024-03-22T08:43:52;19.13;;;11.27;;
84946;SDS011;75241;51.692;5.196;2024-03-22T08:46:18;19.73;;;10.45;;
84946;SDS011;75241;51.692;5.196;2024-03-22T08:48:48;21.98;;;11.20;;
84946;SDS011;75241;51.692;5.196;2024-03-22T08:51:13;20.38;;;10.68;;
84946;SDS011;75241;51.692;5.196;2024-03-22T08:53:39;19.05;;;11.02;;
84946;SDS011;75241;51.692;5.196;2024-03-22T08:56:04;20.88;;;11.27;;
84946;SDS011;75241;51.692;5.196;2024-03-22T08:58:29;18.25;;;10.90;;
84946;SDS011;75241;51.692;5.196;2024-03-22T09:00:55;22.27;;;10.93;;
84946;SDS011;75241;51.692;5.196;2024-03-22T09:03:20;17.95;;;10.40;;
84946;SDS011;75241;51.692;5.196;2024-03-22T09:05:51;21.48;;;11.05;;
84946;SDS011;75241;51.692;5.196;2024-03-22T09:08:18;20.65;;;10.55;;
84946;SDS011;75241;51.692;5.196;2024-03-22T09:10:44;18.90;;;11.55;;
84946;SDS011;75241;51.692;5.196;2024-03-22T09:13:10;21.65;;;11.95;;
84946;SDS011;75241;51.692;5.196;2024-03-22T09:15:37;21.02;;;10.65;;
84946;SDS011;75241;51.692;5.196;2024-03-22T09:18:03;23.17;;;11.93;;
84946;SDS011;75241;51.692;5.196;2024-03-22T09:20:28;21.88;;;10.88;;
84946;SDS011;75241;51.692;5.196;2024-03-22T09:22:54;19.85;;;11.20;;
84946;SDS011;75241;51.692;5.196;2024-03-22T09:25:19;21.70;;;11.52;;
84946;SDS011;75241;51.692;5.196;2024-03-22T09:27:44;20.73;;;11.25;;
84946;SDS011;75241;51.692;5.196;2024-03-22T09:30:11;20.70;;;12.10;;
84946;SDS011;75241;51.692;5.196;2024-03-22T09:32:36;20.52;;;10.93;;
84946;SDS011;75241;51.692;5.196;2024-03-22T09:35:02;18.95;;;10.18;;
84946;SDS011;75241;51.692;5.196;2024-03-22T09:37:27;19.92;;;11.40;;
84946;SDS011;75241;51.692;5.196;2024-03-22T09:39:53;19.23;;;10.85;;
84946;SDS011;75241;51.692;5.196;2024-03-22T09:42:18;20.95;;;12.27;;
84946;SDS011;75241;51.692;5.196;2024-03-22T09:44:48;18.15;;;10.75;;
84946;SDS011;75241;51.692;5.196;2024-03-22T09:47:15;20.20;;;11.52;;
84946;SDS011;75241;51.692;5.196;2024-03-22T09:49:42;24.30;;;12.23;;
84946;SDS011;75241;51.692;5.196;2024-03-22T09:52:11;21.27;;;11.30;;
84946;SDS011;75241;51.692;5.196;2024-03-22T09:54:39;20.45;;;13.32;;
84946;SDS011;75241;51.692;5.196;2024-03-22T09:57:18;20.33;;;11.23;;
84946;SDS011;75241;51.692;5.196;2024-03-22T09:59:44;23.02;;;12.23;;
84946;SDS011;75241;51.692;5.196;2024-03-22T10:02:11;23.73;;;12.43;;
84946;SDS011;75241;51.692;5.196;2024-03-22T10:04:40;26.13;;;12.95;;
84946;SDS011;75241;51.692;5.196;2024-03-22T10:07:06;25.75;;;13.43;;
84946;SDS011;75241;51.692;5.196;2024-03-22T10:09:33;24.60;;;13.75;;
84946;SDS011;75241;51.692;5.196;2024-03-22T10:11:58;21.52;;;12.30;;
84946;SDS011;75241;51.692;5.196;2024-03-22T10:14:24;19.40;;;11.98;;
84946;SDS011;75241;51.692;5.196;2024-03-22T10:16:55;23.25;;;11.48;;
84946;SDS011;75241;51.692;5.196;2024-03-22T10:19:20;26.08;;;12.77;;
84946;SDS011;75241;51.692;5.196;2024-03-22T10:21:47;23.98;;;13.02;;
84946;SDS011;75241;51.692;5.196;2024-03-22T10:24:13;21.45;;;12.65;;
84946;SDS011;75241;51.692;5.196;2024-03-22T10:26:39;20.65;;;13.27;;
84946;SDS011;75241;51.692;5.196;2024-03-22T10:29:08;27.50;;;14.27;;
84946;SDS011;75241;51.692;5.196;2024-03-22T10:31:34;24.88;;;13.60;;
84946;SDS011;75241;51.692;5.196;2024-03-22T10:34:02;23.48;;;13.68;;
84946;SDS011;75241;51.692;5.196;2024-03-22T10:36:30;22.88;;;12.38;;
84946;SDS011;75241;51.692;5.196;2024-03-22T10:38:56;23.65;;;13.73;;
84946;SDS011;75241;51.692;5.196;2024-03-22T10:41:24;24.10;;;13.63;;
84946;SDS011;75241;51.692;5.196;2024-03-22T10:43:51;29.25;;;14.30;;
84946;SDS011;75241;51.692;5.196;2024-03-22T10:46:16;26.75;;;14.18;;
84946;SDS011;75241;51.692;5.196;2024-03-22T10:48:45;29.63;;;14.63;;
84946;SDS011;75241;51.692;5.196;2024-03-22T10:51:11;26.65;;;14.57;;
84946;SDS011;75241;51.692;5.196;2024-03-22T10:53:39;24.77;;;13.80;;
84946;SDS011;75241;51.692;5.196;2024-03-22T10:56:06;28.90;;;15.55;;
84946;SDS011;75241;51.692;5.196;2024-03-22T10:58:34;38.53;;;15.98;;
84946;SDS011;75241;51.692;5.196;2024-03-22T11:01:04;27.35;;;15.40;;
84946;SDS011;75241;51.692;5.196;2024-03-22T11:03:30;26.92;;;15.10;;
84946;SDS011;75241;51.692;5.196;2024-03-22T11:05:56;26.83;;;12.65;;
84946;SDS011;75241;51.692;5.196;2024-03-22T11:08:26;30.55;;;14.80;;
84946;SDS011;75241;51.692;5.196;2024-03-22T11:10:53;32.72;;;15.27;;
84946;SDS011;75241;51.692;5.196;2024-03-22T11:13:19;23.73;;;13.27;;
84946;SDS011;75241;51.692;5.196;2024-03-22T11:15:51;25.33;;;13.75;;
84946;SDS011;75241;51.692;5.196;2024-03-22T11:18:17;25.38;;;13.43;;
84946;SDS011;75241;51.692;5.196;2024-03-22T11:20:43;24.85;;;13.45;;
84946;SDS011;75241;51.692;5.196;2024-03-22T11:25:35;25.58;;;13.05;;
84946;SDS011;75241;51.692;5.196;2024-03-22T11:28:01;28.58;;;14.00;;
84946;SDS011;75241;51.692;5.196;2024-03-22T11:30:32;25.25;;;13.65;;
84946;SDS011;75241;51.692;5.196;2024-03-22T11:33:00;25.08;;;12.98;;
84946;SDS011;75241;51.692;5.196;2024-03-22T11:35:26;23.27;;;12.38;;
84946;SDS011;75241;51.692;5.196;2024-03-22T11:37:52;27.27;;;14.43;;
84946;SDS011;75241;51.692;5.196;2024-03-22T11:40:17;27.80;;;13.82;;
84946;SDS011;75241;51.692;5.196;2024-03-22T11:42:44;26.05;;;13.80;;
84946;SDS011;75241;51.692;5.196;2024-03-22T11:45:13;29.30;;;14.38;;
84946;SDS011;75241;51.692;5.196;2024-03-22T11:47:40;26.38;;;14.38;;
84946;SDS011;75241;51.692;5.196;2024-03-22T11:50:06;22.25;;;13.40;;
84946;SDS011;75241;51.692;5.196;2024-03-22T11:52:31;23.50;;;12.75;;
84946;SDS011;75241;51.692;5.196;2024-03-22T11:54:57;19.25;;;11.73;;
84946;SDS011;75241;51.692;5.196;2024-03-22T11:57:22;18.73;;;10.98;;
84946;SDS011;75241;51.692;5.196;2024-03-22T11:59:49;26.73;;;13.18;;
84946;SDS011;75241;51.692;5.196;2024-03-22T12:02:15;19.65;;;12.40;;
84946;SDS011;75241;51.692;5.196;2024-03-22T12:04:47;14.77;;;9.15;;
84946;SDS011;75241;51.692;5.196;2024-03-22T12:07:13;19.15;;;11.40;;
84946;SDS011;75241;51.692;5.196;2024-03-22T12:09:42;21.17;;;11.45;;
84946;SDS011;75241;51.692;5.196;2024-03-22T12:12:09;18.65;;;11.25;;
84946;SDS011;75241;51.692;5.196;2024-03-22T12:14:36;15.07;;;9.77;;
84946;SDS011;75241;51.692;5.196;2024-03-22T12:17:03;17.08;;;10.05;;
84946;SDS011;75241;51.692;5.196;2024-03-22T12:19:29;14.40;;;8.35;;
84946;SDS011;75241;51.692;5.196;2024-03-22T12:21:54;12.98;;;9.32;;
84946;SDS011;75241;51.692;5.196;2024-03-22T12:24:20;14.55;;;9.23;;
84946;SDS011;75241;51.692;5.196;2024-03-22T12:26:46;13.65;;;8.43;;
84946;SDS011;75241;51.692;5.196;2024-03-22T12:29:17;13.00;;;7.70;;
84946;SDS011;75241;51.692;5.196;2024-03-22T12:31:43;12.57;;;8.18;;
84946;SDS011;75241;51.692;5.196;2024-03-22T12:34:09;10.70;;;7.38;;
84946;SDS011;75241;51.692;5.196;2024-03-22T12:36:35;13.77;;;8.35;;
84946;SDS011;75241;51.692;5.196;2024-03-22T12:39:00;14.02;;;8.63;;
84946;SDS011;75241;51.692;5.196;2024-03-22T12:41:26;13.18;;;7.45;;
84946;SDS011;75241;51.692;5.196;2024-03-22T12:43:54;10.90;;;7.25;;
84946;SDS011;75241;51.692;5.196;2024-03-22T12:46:19;13.00;;;7.82;;
84946;SDS011;75241;51.692;5.196;2024-03-22T12:48:45;10.18;;;6.57;;
84946;SDS011;75241;51.692;5.196;2024-03-22T12:51:10;10.00;;;6.80;;
84946;SDS011;75241;51.692;5.196;2024-03-22T12:53:36;10.95;;;7.32;;
84946;SDS011;75241;51.692;5.196;2024-03-22T12:56:02;11.10;;;7.18;;
84946;SDS011;75241;51.692;5.196;2024-03-22T12:58:29;10.63;;;7.35;;
84946;SDS011;75241;51.692;5.196;2024-03-22T13:00:54;9.93;;;6.35;;
84946;SDS011;75241;51.692;5.196;2024-03-22T13:03:20;10.02;;;6.38;;
84946;SDS011;75241;51.692;5.196;2024-03-22T13:05:45;10.95;;;6.88;;
84946;SDS011;75241;51.692;5.196;2024-03-22T13:08:11;10.73;;;6.55;;
84946;SDS011;75241;51.692;5.196;2024-03-22T13:10:36;13.20;;;7.32;;
84946;SDS011;75241;51.692;5.196;2024-03-22T13:13:01;9.30;;;5.95;;
84946;SDS011;75241;51.692;5.196;2024-03-22T13:15:27;13.82;;;7.78;;
84946;SDS011;75241;51.692;5.196;2024-03-22T13:17:52;14.95;;;9.27;;
84946;SDS011;75241;51.692;5.196;2024-03-22T13:20:20;15.85;;;9.25;;
84946;SDS011;75241;51.692;5.196;2024-03-22T13:22:45;15.68;;;8.32;;
84946;SDS011;75241;51.692;5.196;2024-03-22T13:25:10;15.90;;;9.10;;
84946;SDS011;75241;51.692;5.196;2024-03-22T13:27:36;18.08;;;9.55;;
84946;SDS011;75241;51.692;5.196;2024-03-22T13:30:04;16.15;;;8.13;;
84946;SDS011;75241;51.692;5.196;2024-03-22T13:32:30;16.35;;;8.52;;
84946;SDS011;75241;51.692;5.196;2024-03-22T13:34:56;13.70;;;8.18;;
84946;SDS011;75241;51.692;5.196;2024-03-22T13:37:21;15.10;;;7.50;;
84946;SDS011;75241;51.692;5.196;2024-03-22T13:39:50;13.00;;;7.78;;
84946;SDS011;75241;51.692;5.196;2024-03-22T13:42:15;12.80;;;7.30;;
84946;SDS011;75241;51.692;5.196;2024-03-22T13:44:41;17.40;;;6.88;;
84946;SDS011;75241;51.692;5.196;2024-03-22T13:47:07;16.50;;;7.88;;
84946;SDS011;75241;51.692;5.196;2024-03-22T13:49:32;16.52;;;7.82;;
84946;SDS011;75241;51.692;5.196;2024-03-22T13:51:58;11.70;;;6.63;;
84946;SDS011;75241;51.692;5.196;2024-03-22T13:54:26;16.17;;;7.00;;
84946;SDS011;75241;51.692;5.196;2024-03-22T13:56:52;14.57;;;6.95;;
84946;SDS011;75241;51.692;5.196;2024-03-22T13:59:17;16.48;;;6.00;;
84946;SDS011;75241;51.692;5.196;2024-03-22T14:01:44;14.68;;;6.82;;
84946;SDS011;75241;51.692;5.196;2024-03-22T14:04:12;16.02;;;7.65;;
84946;SDS011;75241;51.692;5.196;2024-03-22T14:06:37;15.10;;;7.63;;
84946;SDS011;75241;51.692;5.196;2024-03-22T14:09:03;18.00;;;8.77;;
84946;SDS011;75241;51.692;5.196;2024-03-22T14:11:30;13.65;;;7.53;;
84946;SDS011;75241;51.692;5.196;2024-03-22T14:13:59;14.65;;;8.10;;
84946;SDS011;75241;51.692;5.196;2024-03-22T14:16:25;15.68;;;8.05;;
84946;SDS011;75241;51.692;5.196;2024-03-22T14:18:51;15.55;;;9.00;;